Time;durP1;ratioP1;P1;durP2;ratioP2;P2;SDS_P1;SDS_P2;PMS_P1;PMS_P2;Temp;Humidity;BMP_temperature;BMP_pressure;BME280_temperature;BME280_humidity;BME280_pressure;Samples;Min_cycle;Max_cycle;Signal;HPM_P1;HPM_P2
2022/03/08 00:00:48;;;;;;;10.20;8.70;;;-1.80;99.90;;;;;;5046489;28;20025;-75
2022/03/08 00:03:13;;;;;;;8.80;7.90;;;-1.90;99.90;;;;;;5029169;28;20022;-74
2022/03/08 00:05:39;;;;;;;9.52;8.10;;;-1.80;99.90;;;;;;5027246;28;20090;-73
2022/03/08 00:08:05;;;;;;;8.90;8.00;;;-1.80;99.90;;;;;;5020829;28;20029;-75
2022/03/08 00:10:31;;;;;;;8.02;6.95;;;-1.80;99.90;;;;;;5047355;28;20028;-75
2022/03/08 00:12:56;;;;;;;10.48;7.90;;;-1.80;99.90;;;;;;5026223;28;20419;-74
2022/03/08 00:15:25;;;;;;;9.10;7.80;;;-2.00;99.90;;;;;;5015719;28;20503;-74
2022/03/08 00:17:55;;;;;;;10.75;8.13;;;-2.00;99.90;;;;;;5027182;28;20100;-73
2022/03/08 00:20:21;;;;;;;8.85;7.95;;;-1.90;99.90;;;;;;5015061;28;20113;-74
2022/03/08 00:22:48;;;;;;;9.75;8.02;;;-1.80;99.90;;;;;;5012425;28;20026;-74
2022/03/08 00:25:14;;;;;;;9.63;8.63;;;-1.80;99.90;;;;;;5043871;28;20026;-75
2022/03/08 00:27:47;;;;;;;10.07;8.77;;;-1.80;99.90;;;;;;5020746;28;20503;-75
2022/03/08 00:30:23;;;;;;;9.23;8.32;;;-1.90;99.90;;;;;;5023031;28;20029;-74
2022/03/08 00:32:51;;;;;;;9.77;8.13;;;-1.80;99.90;;;;;;5022673;28;20075;-74
2022/03/08 00:35:17;;;;;;;9.77;8.77;;;-1.90;99.90;;;;;;5023791;28;20045;-75
2022/03/08 00:37:44;;;;;;;10.35;9.35;;;-2.20;99.90;;;;;;5021388;28;20022;-75
2022/03/08 00:40:11;;;;;;;10.50;9.43;;;-2.30;99.90;;;;;;5030997;28;20096;-75
2022/03/08 00:42:36;;;;;;;11.55;9.88;;;-2.50;99.90;;;;;;5014488;28;20075;-74
2022/03/08 00:45:03;;;;;;;10.82;9.65;;;-2.60;99.90;;;;;;5049732;28;20034;-75
2022/03/08 00:47:29;;;;;;;12.43;10.68;;;-2.70;99.90;;;;;;5023908;28;20026;-76
2022/03/08 00:49:54;;;;;;;11.82;10.45;;;-2.60;99.90;;;;;;5020887;28;20377;-75
2022/03/08 00:52:20;;;;;;;13.63;11.38;;;-2.60;99.90;;;;;;5031458;28;20030;-75
2022/03/08 00:54:46;;;;;;;11.95;10.63;;;-2.60;99.90;;;;;;5021755;28;20032;-75
2022/03/08 00:57:11;;;;;;;14.10;9.68;;;-2.70;99.90;;;;;;5025860;28;20036;-75
2022/03/08 00:59:37;;;;;;;11.52;9.80;;;-2.70;99.90;;;;;;5033742;28;20018;-75
2022/03/08 01:02:03;;;;;;;10.50;9.43;;;-2.90;99.90;;;;;;5026953;28;20379;-75
2022/03/08 01:04:29;;;;;;;10.63;9.45;;;-2.70;99.90;;;;;;5027009;28;20033;-76
2022/03/08 01:06:55;;;;;;;12.20;9.63;;;-2.70;99.90;;;;;;5018201;28;20403;-75
2022/03/08 01:09:21;;;;;;;10.93;9.57;;;-2.60;99.90;;;;;;5025543;28;20495;-75
2022/03/08 01:11:46;;;;;;;11.68;9.88;;;-2.50;99.90;;;;;;5029598;28;20025;-75
2022/03/08 01:14:12;;;;;;;12.68;10.50;;;-2.50;99.90;;;;;;5030863;28;20037;-75
2022/03/08 01:16:37;;;;;;;10.82;9.68;;;-2.40;99.90;;;;;;5022124;28;20030;-74
2022/03/08 01:19:05;;;;;;;11.50;9.85;;;-2.50;99.90;;;;;;5048621;28;20028;-75
2022/03/08 01:21:31;;;;;;;10.70;9.60;;;-2.60;99.90;;;;;;5021781;28;20057;-75
2022/03/08 01:23:56;;;;;;;10.50;9.40;;;-2.60;99.90;;;;;;5049383;28;20517;-75
2022/03/08 01:26:22;;;;;;;10.38;9.30;;;-2.50;99.90;;;;;;5022228;28;20033;-76
2022/03/08 01:28:47;;;;;;;10.18;8.93;;;-2.70;99.90;;;;;;5029313;28;20034;-75
2022/03/08 01:31:13;;;;;;;11.82;9.15;;;-2.60;99.90;;;;;;5026052;28;20064;-76
2022/03/08 01:33:39;;;;;;;10.98;9.75;;;-2.70;99.90;;;;;;5026541;28;20026;-74
2022/03/08 01:36:06;;;;;;;11.57;10.38;;;-2.80;99.90;;;;;;5026653;28;20124;-75
2022/03/08 01:38:31;;;;;;;11.18;10.05;;;-2.80;99.90;;;;;;5019934;28;20026;-75
2022/03/08 01:40:57;;;;;;;12.23;10.00;;;-2.70;99.90;;;;;;5030604;28;20387;-75
2022/03/08 01:43:22;;;;;;;13.20;10.60;;;-2.70;99.90;;;;;;5033386;28;20475;-75
2022/03/08 01:45:48;;;;;;;11.45;9.88;;;-2.80;99.90;;;;;;5026626;28;20029;-75
2022/03/08 01:48:14;;;;;;;12.88;10.27;;;-2.80;99.90;;;;;;5023568;28;20022;-75
2022/03/08 01:50:40;;;;;;;14.02;10.52;;;-2.80;99.90;;;;;;5014650;28;20115;-74
2022/03/08 01:53:06;;;;;;;11.68;10.57;;;-2.70;99.90;;;;;;5014322;28;20030;-74
2022/03/08 01:55:32;;;;;;;12.05;10.40;;;-2.70;99.90;;;;;;5017934;28;20499;-74
2022/03/08 01:57:59;;;;;;;12.75;11.45;;;-2.70;99.90;;;;;;5027257;28;20028;-74
2022/03/08 02:00:28;;;;;;;15.52;11.35;;;-2.90;99.90;;;;;;5019707;28;20029;-73
2022/03/08 02:02:54;;;;;;;11.45;9.93;;;-3.20;99.90;;;;;;5027593;28;20387;-73
2022/03/08 02:05:20;;;;;;;13.65;9.02;;;-3.30;99.90;;;;;;5019259;28;20053;-73
2022/03/08 02:07:46;;;;;;;11.70;10.25;;;-3.40;99.90;;;;;;5027458;28;20034;-73
2022/03/08 02:10:11;;;;;;;12.43;11.13;;;-3.70;99.90;;;;;;5023193;28;20041;-73
2022/03/08 02:12:37;;;;;;;11.32;10.20;;;-3.70;99.90;;;;;;5025558;28;20036;-71
2022/03/08 02:15:17;;;;;;;12.88;11.40;;;-3.60;99.90;;;;;;5031519;28;20117;-73
2022/03/08 02:17:43;;;;;;;11.68;10.50;;;-3.50;99.90;;;;;;5025429;28;20534;-74
2022/03/08 02:20:10;;;;;;;11.98;10.82;;;-3.50;99.90;;;;;;5020494;28;20032;-73
2022/03/08 02:22:36;;;;;;;12.55;8.75;;;-3.50;99.90;;;;;;5019945;28;20030;-73
2022/03/08 02:25:03;;;;;;;13.02;10.75;;;-3.50;99.90;;;;;;5025978;28;20030;-73
2022/03/08 02:27:29;;;;;;;12.93;10.80;;;-3.50;99.90;;;;;;5025454;28;20121;-75
2022/03/08 02:29:56;;;;;;;12.18;10.77;;;-3.40;99.90;;;;;;5014002;28;20029;-75
2022/03/08 02:32:23;;;;;;;11.65;10.45;;;-3.50;99.90;;;;;;5013846;28;20021;-75
2022/03/08 02:34:48;;;;;;;10.80;9.55;;;-3.40;99.90;;;;;;5025562;28;20511;-75
2022/03/08 02:37:14;;;;;;;11.82;10.63;;;-3.30;99.90;;;;;;5026749;28;20148;-75
2022/03/08 02:39:40;;;;;;;12.95;9.52;;;-3.40;99.90;;;;;;5019943;28;20026;-75
2022/03/08 02:42:06;;;;;;;16.55;9.43;;;-3.50;99.90;;;;;;5020495;28;20503;-76
2022/03/08 02:44:33;;;;;;;12.63;11.32;;;-3.70;99.90;;;;;;5013664;28;20030;-74
2022/03/08 02:47:03;;;;;;;12.20;10.45;;;-3.60;99.90;;;;;;5027037;28;20033;-74
2022/03/08 02:49:29;;;;;;;16.88;13.05;;;-3.70;99.90;;;;;;5025943;28;20069;-73
2022/03/08 02:51:56;;;;;;;12.52;9.40;;;-3.70;99.90;;;;;;5026468;28;20033;-73
2022/03/08 02:54:22;;;;;;;14.23;11.25;;;-3.70;99.90;;;;;;5019636;28;20026;-73
2022/03/08 02:56:47;;;;;;;13.88;12.18;;;-3.70;99.90;;;;;;5018828;28;20341;-73
2022/03/08 02:59:19;;;;;;;14.90;12.38;;;-3.60;99.90;;;;;;5024373;28;20517;-74
2022/03/08 03:01:45;;;;;;;13.52;12.13;;;-3.60;99.90;;;;;;5019431;28;20480;-74
2022/03/08 03:04:10;;;;;;;15.10;13.60;;;-3.70;99.90;;;;;;5019016;28;20029;-74
2022/03/08 03:06:37;;;;;;;14.48;10.85;;;-3.70;99.90;;;;;;5011284;28;20387;-74
2022/03/08 03:09:03;;;;;;;14.98;10.05;;;-3.80;99.90;;;;;;5021475;28;20044;-73
2022/03/08 03:11:28;;;;;;;13.82;11.10;;;-4.00;99.90;;;;;;5019399;28;20025;-73
2022/03/08 03:13:54;;;;;;;13.73;9.80;;;-3.90;99.90;;;;;;5024622;28;20499;-77
2022/03/08 03:16:19;;;;;;;19.08;12.07;;;-3.80;99.90;;;;;;5026265;28;20060;-75
2022/03/08 03:18:45;;;;;;;15.63;12.60;;;-3.80;99.90;;;;;;5011692;28;20022;-75
2022/03/08 03:21:10;;;;;;;15.43;13.82;;;-3.90;99.90;;;;;;5011339;28;20022;-76
2022/03/08 03:23:36;;;;;;;14.95;11.38;;;-3.90;99.90;;;;;;5011445;28;20025;-76
2022/03/08 03:26:01;;;;;;;14.88;13.27;;;-3.90;99.90;;;;;;5012772;28;20049;-76
2022/03/08 03:28:27;;;;;;;18.42;14.88;;;-3.90;99.90;;;;;;5019390;28;20025;-74
2022/03/08 03:30:52;;;;;;;17.48;13.35;;;-3.90;99.90;;;;;;5012330;28;20041;-74
2022/03/08 03:33:18;;;;;;;16.75;14.85;;;-3.80;99.90;;;;;;5020792;28;20034;-76
2022/03/08 03:35:43;;;;;;;20.20;13.27;;;-3.80;99.90;;;;;;5017962;28;20080;-76
2022/03/08 03:38:09;;;;;;;17.45;15.65;;;-3.80;99.90;;;;;;5020296;28;20030;-76
2022/03/08 03:40:34;;;;;;;19.13;16.48;;;-3.70;99.90;;;;;;5018705;28;20026;-76
2022/03/08 03:43:00;;;;;;;21.88;13.93;;;-3.90;99.90;;;;;;5024676;28;20037;-75
2022/03/08 03:45:25;;;;;;;17.75;15.68;;;-4.10;99.90;;;;;;5023812;28;20112;-74
2022/03/08 03:47:51;;;;;;;17.38;15.32;;;-4.00;99.90;;;;;;5029978;28;20052;-73
2022/03/08 03:50:16;;;;;;;19.50;17.60;;;-4.10;99.90;;;;;;5019342;28;20457;-76
2022/03/08 03:52:42;;;;;;;19.48;16.83;;;-3.90;99.90;;;;;;5019426;28;20036;-76
2022/03/08 03:55:08;;;;;;;18.48;16.58;;;-3.80;99.90;;;;;;5017688;28;20072;-75
2022/03/08 03:57:34;;;;;;;19.73;13.25;;;-3.80;99.90;;;;;;5023652;28;20018;-75
2022/03/08 03:59:59;;;;;;;20.27;14.38;;;-3.90;99.90;;;;;;5024229;28;20029;-75
2022/03/08 04:02:25;;;;;;;27.77;18.42;;;-3.90;99.90;;;;;;5017787;28;20025;-75
2022/03/08 04:04:50;;;;;;;48.63;29.85;;;-4.00;99.90;;;;;;5018783;28;20447;-75
2022/03/08 04:07:16;;;;;;;25.17;17.63;;;-4.00;99.90;;;;;;5023751;28;20037;-76
2022/03/08 04:09:41;;;;;;;24.42;20.55;;;-3.90;99.90;;;;;;5025489;28;20036;-75
2022/03/08 04:12:07;;;;;;;27.17;17.90;;;-3.90;99.90;;;;;;5017523;28;20116;-74
2022/03/08 04:14:33;;;;;;;30.00;18.38;;;-3.90;99.90;;;;;;5018172;28;20034;-74
2022/03/08 04:16:59;;;;;;;22.65;15.30;;;-4.10;99.90;;;;;;5012759;28;20033;-74
2022/03/08 04:19:25;;;;;;;23.13;15.93;;;-4.10;99.90;;;;;;5012043;28;20418;-75
2022/03/08 04:21:50;;;;;;;20.88;18.13;;;-4.10;99.90;;;;;;5029802;28;20044;-75
2022/03/08 04:24:16;;;;;;;22.42;15.35;;;-4.20;99.90;;;;;;5031801;28;20053;-76
2022/03/08 04:26:41;;;;;;;22.35;14.63;;;-4.10;99.90;;;;;;5017134;28;20079;-75
2022/03/08 04:29:07;;;;;;;19.05;16.98;;;-4.30;99.90;;;;;;5018858;28;20034;-75
2022/03/08 04:31:32;;;;;;;21.20;14.73;;;-4.20;99.90;;;;;;5024831;28;20042;-75
2022/03/08 04:33:58;;;;;;;24.30;15.32;;;-4.10;99.90;;;;;;5024840;28;20490;-75
2022/03/08 04:36:23;;;;;;;20.58;14.40;;;-4.10;99.90;;;;;;5018568;28;20079;-77
2022/03/08 04:38:49;;;;;;;19.92;17.35;;;-4.20;99.90;;;;;;5017977;28;20022;-76
2022/03/08 04:41:14;;;;;;;17.98;16.08;;;-4.20;99.90;;;;;;5023566;28;20025;-76
2022/03/08 04:43:40;;;;;;;20.15;17.38;;;-4.10;99.90;;;;;;5024794;28;20479;-74
2022/03/08 04:46:05;;;;;;;23.70;14.88;;;-4.10;99.90;;;;;;5025608;28;20472;-74
2022/03/08 04:48:31;;;;;;;21.00;14.18;;;-4.20;99.90;;;;;;5011808;28;20026;-73
2022/03/08 04:50:56;;;;;;;20.38;18.17;;;-4.30;99.90;;;;;;5013406;28;20091;-73
2022/03/08 04:53:22;;;;;;;23.17;13.75;;;-4.30;99.90;;;;;;5011683;28;20152;-74
2022/03/08 04:55:47;;;;;;;22.05;14.75;;;-4.30;99.90;;;;;;5010397;28;20403;-74
2022/03/08 04:58:13;;;;;;;23.92;16.73;;;-4.40;99.90;;;;;;5010475;28;20105;-74
2022/03/08 05:00:39;;;;;;;25.30;17.95;;;-4.60;99.90;;;;;;5015947;28;20491;-74
2022/03/08 05:03:04;;;;;;;24.25;15.70;;;-4.70;99.90;;;;;;5025215;28;20030;-74
2022/03/08 05:05:32;;;;;;;23.45;15.68;;;-4.70;99.90;;;;;;5010265;28;20022;-74
2022/03/08 05:07:59;;;;;;;21.50;14.55;;;-4.60;99.90;;;;;;5015170;28;20141;-74
2022/03/08 05:10:25;;;;;;;18.02;16.13;;;-4.60;99.90;;;;;;5016325;28;20052;-74
2022/03/08 05:12:50;;;;;;;22.25;14.18;;;-4.50;99.90;;;;;;5016992;28;20021;-74
2022/03/08 05:15:16;;;;;;;21.10;14.77;;;-4.40;99.90;;;;;;5017530;28;20033;-75
2022/03/08 05:17:41;;;;;;;20.80;18.55;;;-4.50;99.90;;;;;;5017236;28;20029;-74
2022/03/08 05:20:07;;;;;;;24.05;14.45;;;-4.50;99.90;;;;;;5024731;28;20026;-75
2022/03/08 05:22:33;;;;;;;22.15;14.43;;;-4.60;99.90;;;;;;5038570;28;20384;-75
2022/03/08 05:24:58;;;;;;;22.70;14.50;;;-4.60;99.90;;;;;;5024546;28;20034;-75
2022/03/08 05:27:24;;;;;;;24.50;15.48;;;-4.60;99.90;;;;;;5011376;28;20033;-75
2022/03/08 05:29:50;;;;;;;25.73;15.82;;;-4.60;99.90;;;;;;5026375;28;20084;-75
2022/03/08 05:32:16;;;;;;;21.83;14.30;;;-4.50;99.90;;;;;;5026650;28;20013;-75
2022/03/08 05:34:42;;;;;;;24.75;14.68;;;-4.60;99.90;;;;;;5021392;28;20033;-75
2022/03/08 05:37:08;;;;;;;23.65;15.10;;;-4.60;99.90;;;;;;5022149;28;20025;-75
2022/03/08 05:39:33;;;;;;;21.77;14.82;;;-4.70;99.90;;;;;;5027918;28;20026;-73
2022/03/08 05:41:59;;;;;;;23.20;15.40;;;-4.70;99.90;;;;;;5014746;28;20105;-74
2022/03/08 05:44:24;;;;;;;22.05;19.83;;;-4.70;99.90;;;;;;5033961;28;20403;-73
2022/03/08 05:46:50;;;;;;;26.60;17.02;;;-4.80;99.90;;;;;;5022434;28;20049;-75
2022/03/08 05:49:16;;;;;;;22.88;16.15;;;-4.70;99.90;;;;;;5026510;28;20121;-75
2022/03/08 05:51:43;;;;;;;25.23;16.80;;;-4.80;99.90;;;;;;5014915;28;20025;-74
2022/03/08 05:54:08;;;;;;;24.83;16.35;;;-4.90;99.90;;;;;;5026203;28;20029;-75
2022/03/08 05:56:34;;;;;;;25.17;16.55;;;-4.80;99.90;;;;;;5019423;28;20388;-75
2022/03/08 05:58:59;;;;;;;24.58;16.92;;;-4.80;99.90;;;;;;5014525;28;20022;-75
2022/03/08 06:01:25;;;;;;;23.35;16.35;;;-4.80;99.90;;;;;;5016268;28;20094;-74
2022/03/08 06:03:50;;;;;;;29.15;17.08;;;-4.80;99.90;;;;;;5018453;28;20487;-74
2022/03/08 06:06:16;;;;;;;30.20;19.23;;;-4.80;99.90;;;;;;5022252;28;20101;-75
2022/03/08 06:08:42;;;;;;;42.83;28.77;;;-4.70;99.90;;;;;;5026402;28;20022;-75
2022/03/08 06:11:07;;;;;;;30.13;19.63;;;-4.80;99.90;;;;;;5025961;28;20030;-75
2022/03/08 06:13:33;;;;;;;27.35;24.27;;;-4.70;99.90;;;;;;5020826;28;20025;-75
2022/03/08 06:15:58;;;;;;;32.55;20.67;;;-4.60;99.90;;;;;;5020739;28;20369;-75
2022/03/08 06:18:24;;;;;;;33.33;21.20;;;-4.60;99.90;;;;;;5027396;28;20061;-75
2022/03/08 06:20:49;;;;;;;28.60;24.33;;;-4.60;99.90;;;;;;5025290;28;20033;-75
2022/03/08 06:23:15;;;;;;;30.08;19.92;;;-4.50;99.90;;;;;;5020625;28;20028;-74
2022/03/08 06:25:40;;;;;;;35.35;19.88;;;-4.40;99.90;;;;;;5022449;28;20030;-74
2022/03/08 06:28:06;;;;;;;27.83;22.88;;;-4.30;99.90;;;;;;5031822;28;20047;-73
2022/03/08 06:30:33;;;;;;;28.40;23.70;;;-4.30;99.90;;;;;;5022056;28;20407;-72
2022/03/08 06:32:58;;;;;;;33.30;21.02;;;-4.20;99.90;;;;;;5012605;28;20034;-75
2022/03/08 06:35:24;;;;;;;36.67;21.23;;;-4.00;99.90;;;;;;5023650;28;20480;-75
2022/03/08 06:37:49;;;;;;;35.97;26.70;;;-4.00;99.90;;;;;;5020388;28;20029;-74
2022/03/08 06:40:15;;;;;;;41.40;23.95;;;-4.00;99.90;;;;;;5017431;28;20149;-74
2022/03/08 06:42:41;;;;;;;36.67;23.00;;;-3.90;99.90;;;;;;5030194;28;20071;-75
2022/03/08 06:45:07;;;;;;;38.72;23.30;;;-3.90;99.90;;;;;;5033485;28;20079;-75
2022/03/08 06:47:32;;;;;;;30.35;25.80;;;-3.80;99.90;;;;;;5020145;28;20033;-74
2022/03/08 06:49:58;;;;;;;52.03;28.70;;;-3.70;99.90;;;;;;5021881;28;20121;-75
2022/03/08 06:52:24;;;;;;;72.53;52.58;;;-3.60;99.90;;;;;;5013353;28;20040;-74
2022/03/08 06:54:49;;;;;;;70.07;50.00;;;-3.50;99.90;;;;;;5013402;28;20030;-74
2022/03/08 06:57:15;;;;;;;60.92;35.88;;;-3.40;99.90;;;;;;5017657;28;20017;-74
2022/03/08 06:59:41;;;;;;;64.50;36.08;;;-3.30;99.90;;;;;;5022398;28;20033;-74
2022/03/08 07:02:07;;;;;;;63.00;37.10;;;-3.30;99.90;;;;;;5030234;28;20022;-74
2022/03/08 07:04:32;;;;;;;43.17;33.35;;;-3.20;99.90;;;;;;5020975;28;20026;-74
2022/03/08 07:06:58;;;;;;;25.02;22.38;;;-3.10;99.90;;;;;;5015903;28;20087;-74
2022/03/08 07:09:24;;;;;;;27.55;17.88;;;-3.00;99.90;;;;;;5022475;28;20423;-74
2022/03/08 07:11:50;;;;;;;21.83;19.52;;;-3.00;99.90;;;;;;5026420;28;20096;-74
2022/03/08 07:14:17;;;;;;;21.08;18.75;;;-3.00;99.90;;;;;;5023227;28;20116;-75
2022/03/08 07:16:43;;;;;;;24.30;21.70;;;-3.00;99.90;;;;;;5019647;28;20018;-75
2022/03/08 07:19:09;;;;;;;25.58;22.85;;;-2.80;99.90;;;;;;5021783;28;20080;-74
2022/03/08 07:21:35;;;;;;;26.77;23.88;;;-2.70;99.90;;;;;;5024690;28;20030;-75
2022/03/08 07:24:00;;;;;;;22.42;20.13;;;-2.60;99.90;;;;;;5011630;28;20014;-74
2022/03/08 07:26:26;;;;;;;24.65;22.10;;;-2.50;99.90;;;;;;5024499;28;20484;-74
2022/03/08 07:28:51;;;;;;;25.77;22.33;;;-2.40;99.90;;;;;;5022708;28;20040;-74
2022/03/08 07:31:17;;;;;;;24.00;21.33;;;-2.30;99.90;;;;;;5017590;28;20033;-74
2022/03/08 07:33:42;;;;;;;26.70;22.27;;;-2.10;99.90;;;;;;5031033;28;20033;-74
2022/03/08 07:36:08;;;;;;;25.00;21.20;;;-2.10;99.90;;;;;;5032159;28;20033;-74
2022/03/08 07:38:34;;;;;;;26.35;20.40;;;-2.00;99.90;;;;;;5032209;28;20025;-74
2022/03/08 07:40:59;;;;;;;22.95;19.85;;;-1.90;99.90;;;;;;5030704;28;20026;-75
2022/03/08 07:43:25;;;;;;;33.15;25.00;;;-1.70;99.90;;;;;;5032175;28;20025;-74
2022/03/08 07:45:50;;;;;;;28.75;21.08;;;-1.60;99.90;;;;;;5015426;28;20502;-74
2022/03/08 07:48:16;;;;;;;31.20;20.63;;;-1.50;99.90;;;;;;5011129;28;20029;-75
2022/03/08 07:50:41;;;;;;;23.15;20.60;;;-1.40;99.90;;;;;;5011815;28;20026;-75
2022/03/08 07:53:07;;;;;;;24.00;19.55;;;-1.30;99.90;;;;;;5010925;28;20025;-75
2022/03/08 07:55:34;;;;;;;24.08;20.08;;;-1.10;99.90;;;;;;5010815;28;20554;-74
2022/03/08 07:58:01;;;;;;;23.33;19.38;;;-1.00;99.90;;;;;;5010927;28;20025;-74
2022/03/08 08:00:27;;;;;;;24.83;20.17;;;-0.80;99.90;;;;;;5011869;28;20041;-74
2022/03/08 08:02:53;;;;;;;20.77;18.55;;;-0.70;99.90;;;;;;5011882;28;20396;-74
2022/03/08 08:05:19;;;;;;;20.67;18.55;;;-0.60;99.90;;;;;;5012155;28;20038;-74
2022/03/08 08:07:45;;;;;;;21.65;18.10;;;-0.50;99.90;;;;;;5010891;28;20036;-74
2022/03/08 08:10:11;;;;;;;20.45;17.42;;;-0.40;99.90;;;;;;5010635;28;20062;-75
2022/03/08 08:12:37;;;;;;;21.48;18.45;;;-0.20;99.90;;;;;;5011914;28;20053;-75
2022/03/08 08:15:04;;;;;;;24.60;17.63;;;0.00;99.90;;;;;;5010573;28;20395;-75
2022/03/08 08:17:30;;;;;;;19.80;17.30;;;0.30;99.90;;;;;;5011991;28;20487;-75
2022/03/08 08:19:56;;;;;;;16.48;13.80;;;0.60;99.90;;;;;;5011828;28;20021;-75
2022/03/08 08:22:22;;;;;;;14.70;12.93;;;0.90;99.90;;;;;;5010471;28;20108;-75
2022/03/08 08:24:47;;;;;;;18.60;13.25;;;1.20;99.90;;;;;;5010689;28;20036;-75
2022/03/08 08:27:12;;;;;;;15.70;12.70;;;1.30;99.90;;;;;;5011895;28;20037;-75
2022/03/08 08:29:38;;;;;;;14.27;12.57;;;1.40;99.90;;;;;;5011524;28;20038;-75
2022/03/08 08:32:04;;;;;;;14.38;11.98;;;1.40;99.90;;;;;;5011561;28;20404;-75
2022/03/08 08:34:29;;;;;;;13.80;12.20;;;1.70;99.90;;;;;;5043391;28;20034;-74
2022/03/08 08:36:55;;;;;;;13.95;12.35;;;1.90;99.90;;;;;;5010465;28;20026;-75
2022/03/08 08:39:21;;;;;;;15.55;12.18;;;1.80;99.90;;;;;;5011644;28;20392;-74
2022/03/08 08:41:46;;;;;;;14.70;12.55;;;1.80;99.90;;;;;;5010147;28;20117;-74
2022/03/08 08:44:12;;;;;;;14.48;11.85;;;1.90;99.90;;;;;;5011790;28;20491;-75
2022/03/08 08:46:38;;;;;;;13.55;11.45;;;2.10;99.90;;;;;;5011599;28;20026;-75
2022/03/08 08:49:04;;;;;;;17.02;11.77;;;2.20;99.90;;;;;;5010289;28;20108;-74
2022/03/08 08:51:31;;;;;;;15.57;11.57;;;2.20;99.90;;;;;;5011113;28;20026;-75
2022/03/08 08:53:57;;;;;;;15.90;12.10;;;2.30;99.90;;;;;;5011467;28;20030;-74
2022/03/08 08:56:22;;;;;;;16.42;12.68;;;2.40;99.90;;;;;;5021605;28;20080;-74
2022/03/08 08:58:48;;;;;;;15.55;12.13;;;2.40;99.90;;;;;;5031634;28;20029;-74
2022/03/08 09:01:13;;;;;;;13.07;11.13;;;2.40;99.90;;;;;;5030851;28;20105;-75
2022/03/08 09:03:40;;;;;;;11.75;10.60;;;2.40;99.90;;;;;;5028211;28;20026;-75
2022/03/08 09:06:05;;;;;;;12.95;10.40;;;2.50;99.90;;;;;;5015398;28;20029;-75
2022/03/08 09:08:31;;;;;;;12.57;10.68;;;2.60;99.90;;;;;;5013939;28;20036;-75
2022/03/08 09:10:57;;;;;;;11.15;9.95;;;2.70;99.90;;;;;;5025001;28;20032;-75
2022/03/08 09:13:23;;;;;;;13.70;10.57;;;2.80;99.90;;;;;;5018450;28;20480;-75
2022/03/08 09:15:49;;;;;;;13.10;9.85;;;2.80;99.90;;;;;;5013779;28;20060;-75
2022/03/08 09:18:15;;;;;;;11.48;9.65;;;2.90;99.90;;;;;;5046894;28;20030;-75
2022/03/08 09:20:41;;;;;;;11.02;9.05;;;2.90;99.90;;;;;;5014775;28;20654;-75
2022/03/08 09:23:07;;;;;;;9.75;8.63;;;2.90;99.90;;;;;;5030913;28;20114;-75
2022/03/08 09:25:33;;;;;;;10.32;9.18;;;2.90;99.90;;;;;;5021981;28;20022;-77
2022/03/08 09:28:01;;;;;;;10.95;8.30;;;3.20;99.90;;;;;;5015130;28;20037;-74
2022/03/08 09:30:27;;;;;;;10.32;8.23;;;3.20;99.90;;;;;;5013518;28;20103;-74
2022/03/08 09:32:53;;;;;;;10.35;8.48;;;3.40;99.90;;;;;;5028280;28;20030;-74
2022/03/08 09:35:18;;;;;;;9.98;7.70;;;3.40;99.90;;;;;;5024266;28;20033;-75
2022/03/08 09:37:44;;;;;;;10.40;8.18;;;3.40;99.90;;;;;;5032270;28;20033;-74
2022/03/08 09:40:10;;;;;;;10.45;8.13;;;3.50;99.90;;;;;;5023679;28;20029;-74
2022/03/08 09:42:36;;;;;;;10.95;7.55;;;3.50;99.90;;;;;;5015579;28;20045;-74
2022/03/08 09:45:03;;;;;;;14.35;8.15;;;3.60;99.90;;;;;;5014756;28;20029;-75
2022/03/08 09:47:28;;;;;;;8.07;7.28;;;3.80;99.90;;;;;;5030313;28;20500;-75
2022/03/08 09:49:54;;;;;;;9.40;7.13;;;3.60;99.90;;;;;;5028089;28;20111;-74
2022/03/08 09:52:20;;;;;;;10.07;7.00;;;3.70;99.90;;;;;;5026419;28;20096;-75
2022/03/08 09:54:46;;;;;;;9.73;6.38;;;3.70;99.90;;;;;;5034324;28;20395;-75
2022/03/08 09:57:15;;;;;;;8.18;6.57;;;3.90;99.90;;;;;;5025758;28;20025;-74
2022/03/08 09:59:41;;;;;;;8.88;6.93;;;4.00;99.90;;;;;;5024568;28;20018;-75
2022/03/08 10:02:07;;;;;;;7.03;5.82;;;4.00;99.90;;;;;;5023285;28;20025;-74
2022/03/08 10:04:33;;;;;;;8.25;5.75;;;4.10;99.90;;;;;;5032561;28;20095;-74
2022/03/08 10:06:59;;;;;;;7.70;5.68;;;4.00;99.90;;;;;;5032224;28;20033;-75
2022/03/08 10:09:25;;;;;;;6.88;5.72;;;4.00;99.90;;;;;;5024503;28;20024;-75
2022/03/08 10:11:55;;;;;;;7.82;5.50;;;4.10;99.90;;;;;;5025569;28;20388;-74
2022/03/08 10:14:38;;;;;;;8.32;6.10;;;4.10;99.90;;;;;;5029941;28;20030;-74
2022/03/08 10:17:09;;;;;;;7.50;6.10;;;4.50;99.90;;;;;;5022329;28;20036;-74
2022/03/08 10:19:48;;;;;;;9.32;5.93;;;4.40;99.90;;;;;;5026752;28;20539;-74
2022/03/08 10:22:26;;;;;;;8.13;5.90;;;4.70;99.90;;;;;;5025122;28;20013;-75
2022/03/08 10:25:07;;;;;;;8.57;6.28;;;4.50;99.90;;;;;;5026966;28;20028;-75
2022/03/08 10:27:33;;;;;;;7.97;6.30;;;4.70;99.90;;;;;;5021895;28;20026;-74
2022/03/08 10:29:59;;;;;;;7.38;5.95;;;4.60;99.90;;;;;;5021625;28;20491;-74
2022/03/08 10:32:36;;;;;;;7.60;6.28;;;4.70;99.90;;;;;;5028923;28;20057;-74
2022/03/08 10:35:02;;;;;;;8.48;6.25;;;5.10;99.90;;;;;;5023371;28;20029;-74
2022/03/08 10:37:35;;;;;;;7.95;6.75;;;4.90;99.90;;;;;;5028535;28;20025;-74
2022/03/08 10:40:09;;;;;;;8.45;6.45;;;5.10;99.90;;;;;;5023110;28;20017;-75
2022/03/08 10:42:38;;;;;;;10.02;6.93;;;5.20;99.90;;;;;;5024904;28;20380;-75
2022/03/08 10:45:15;;;;;;;8.18;6.35;;;5.20;99.90;;;;;;5023496;28;20049;-75
2022/03/08 10:47:51;;;;;;;7.53;6.55;;;5.20;99.90;;;;;;5021667;28;20392;-75
2022/03/08 10:50:18;;;;;;;7.75;6.10;;;5.30;99.90;;;;;;5017290;28;20041;-75
2022/03/08 10:52:47;;;;;;;8.57;7.03;;;5.30;99.90;;;;;;5048601;28;20021;-74
2022/03/08 10:55:15;;;;;;;8.10;6.90;;;5.40;99.90;;;;;;5029533;28;20033;-75
2022/03/08 10:57:44;;;;;;;7.95;6.75;;;5.40;99.90;;;;;;5024895;28;20033;-74
2022/03/08 11:00:15;;;;;;;8.38;6.97;;;5.30;99.90;;;;;;5028184;28;20036;-75
2022/03/08 11:02:53;;;;;;;8.43;6.97;;;5.30;99.90;;;;;;5028047;28;20041;-74
2022/03/08 11:05:20;;;;;;;12.18;6.82;;;5.60;99.90;;;;;;5027736;28;20021;-75
2022/03/08 11:07:46;;;;;;;7.43;6.22;;;5.50;99.90;;;;;;5024774;28;20021;-75
2022/03/08 11:10:13;;;;;;;8.23;6.88;;;5.50;99.90;;;;;;5024476;28;20040;-75
2022/03/08 11:12:40;;;;;;;8.18;6.93;;;5.40;99.90;;;;;;5016490;28;20515;-74
2022/03/08 11:15:08;;;;;;;7.88;6.88;;;5.60;99.90;;;;;;5014517;28;20117;-75
2022/03/08 11:17:36;;;;;;;9.05;7.20;;;5.60;99.90;;;;;;5018123;28;20022;-74
2022/03/08 11:20:07;;;;;;;9.05;6.90;;;5.60;99.90;;;;;;5024391;28;20021;-75
2022/03/08 11:22:33;;;;;;;8.43;6.32;;;5.60;99.90;;;;;;5017246;28;20684;-75
2022/03/08 11:24:59;;;;;;;7.65;6.38;;;5.70;99.90;;;;;;5024354;28;20041;-75
2022/03/08 11:27:25;;;;;;;7.30;6.35;;;6.00;99.90;;;;;;5023645;28;20390;-75
2022/03/08 11:29:51;;;;;;;9.15;6.82;;;5.70;99.90;;;;;;5023168;28;20037;-75
2022/03/08 11:32:24;;;;;;;10.32;7.20;;;6.10;99.90;;;;;;5013294;28;20018;-76
2022/03/08 11:35:01;;;;;;;8.23;6.53;;;6.30;99.90;;;;;;5020979;28;20088;-76
2022/03/08 11:37:29;;;;;;;7.68;5.95;;;6.00;99.90;;;;;;5016910;28;20021;-76
2022/03/08 11:40:13;;;;;;;9.07;6.60;;;5.80;99.90;;;;;;5021046;28;20065;-76
2022/03/08 11:42:47;;;;;;;5.95;5.20;;;6.00;99.90;;;;;;5008036;28;20075;-76
2022/03/08 11:45:20;;;;;;;6.68;5.50;;;6.00;99.90;;;;;;5012692;28;20068;-76
2022/03/08 11:47:52;;;;;;;5.60;5.00;;;6.10;99.90;;;;;;5011958;28;20036;-75
2022/03/08 11:50:25;;;;;;;5.97;4.70;;;6.10;99.90;;;;;;5005976;28;20454;-76
2022/03/08 11:53:06;;;;;;;6.68;4.90;;;6.10;99.90;;;;;;5012382;28;20060;-76
2022/03/08 11:55:35;;;;;;;7.07;5.32;;;6.10;99.90;;;;;;5012004;28;20068;-76
2022/03/08 11:58:03;;;;;;;8.75;5.63;;;6.20;99.90;;;;;;5014361;28;20507;-76
2022/03/08 12:00:45;;;;;;;7.18;5.72;;;6.50;99.90;;;;;;5011293;28;20088;-76
2022/03/08 12:03:16;;;;;;;7.82;4.78;;;7.00;99.90;;;;;;5030042;28;20028;-76
2022/03/08 12:05:46;;;;;;;7.00;5.10;;;7.60;99.90;;;;;;5012613;28;20096;-76
2022/03/08 12:08:30;;;;;;;7.70;4.63;;;7.80;99.20;;;;;;5020365;28;20419;-76
2022/03/08 12:11:06;;;;;;;5.75;4.82;;;8.50;98.70;;;;;;5020850;28;20030;-77
2022/03/08 12:13:35;;;;;;;7.20;4.53;;;9.00;96.20;;;;;;5020766;28;20071;-74
2022/03/08 12:16:09;;;;;;;5.00;4.45;;;9.60;95.20;;;;;;5012270;28;20076;-75
2022/03/08 12:18:50;;;;;;;7.32;4.47;;;9.70;94.60;;;;;;5011401;28;20053;-73
2022/03/08 12:21:15;;;;;;;8.45;4.32;;;10.00;93.90;;;;;;5012864;28;20072;-74
2022/03/08 12:24:03;;;;;;;7.35;4.38;;;10.40;92.20;;;;;;5028583;28;20014;-75
2022/03/08 12:26:36;;;;;;;7.10;4.50;;;10.50;91.70;;;;;;5026376;28;20525;-74
2022/03/08 12:29:08;;;;;;;7.25;4.13;;;10.90;91.30;;;;;;5027724;28;20044;-75
2022/03/08 12:31:56;;;;;;;7.20;5.13;;;10.70;89.70;;;;;;5023429;28;20029;-75
2022/03/08 12:34:42;;;;;;;5.88;4.43;;;11.30;90.50;;;;;;5016026;28;20057;-75